sensor_id;sensor_type;location;lat;lon;timestamp;pressure;altitude;pressure_sealevel;temperature;humidity
51986;BME280;38002;53.296;6.600;2023-01-27T00:04:13;102963.47;;;3.77;94.89
51986;BME280;38002;53.296;6.600;2023-01-27T00:09:13;102965.38;;;3.75;95.40
51986;BME280;38002;53.296;6.600;2023-01-27T00:14:14;102969.00;;;3.74;95.76
51986;BME280;38002;53.296;6.600;2023-01-27T00:19:14;102970.97;;;3.71;95.05
51986;BME280;38002;53.296;6.600;2023-01-27T00:24:18;102973.72;;;3.69;95.09
51986;BME280;38002;53.296;6.600;2023-01-27T00:29:38;102977.41;;;3.67;94.86
51986;BME280;38002;53.296;6.600;2023-01-27T00:34:39;102981.91;;;3.66;94.47
51986;BME280;38002;53.296;6.600;2023-01-27T00:39:41;102981.03;;;3.65;94.82
51986;BME280;38002;53.296;6.600;2023-01-27T00:44:41;102974.63;;;3.68;94.47
51986;BME280;38002;53.296;6.600;2023-01-27T00:50:02;102982.72;;;3.68;94.68
51986;BME280;38002;53.296;6.600;2023-01-27T00:55:03;102982.78;;;3.67;94.90
51986;BME280;38002;53.296;6.600;2023-01-27T01:00:05;103005.13;;;3.69;94.42
51986;BME280;38002;53.296;6.600;2023-01-27T01:05:05;102991.91;;;3.62;94.46
51986;BME280;38002;53.296;6.600;2023-01-27T01:10:06;102995.22;;;3.69;94.55
51986;BME280;38002;53.296;6.600;2023-01-27T01:15:07;102997.91;;;3.69;94.71
51986;BME280;38002;53.296;6.600;2023-01-27T01:20:08;102999.69;;;3.70;94.18
51986;BME280;38002;53.296;6.600;2023-01-27T01:25:08;102995.19;;;3.71;94.28
51986;BME280;38002;53.296;6.600;2023-01-27T01:30:09;103003.31;;;3.69;94.29
51986;BME280;38002;53.296;6.600;2023-01-27T01:35:10;103025.69;;;3.70;94.94
51986;BME280;38002;53.296;6.600;2023-01-27T01:40:11;103027.47;;;3.71;94.65
51986;BME280;38002;53.296;6.600;2023-01-27T01:50:32;103024.69;;;3.72;94.44
51986;BME280;38002;53.296;6.600;2023-01-27T01:55:33;103018.56;;;3.69;94.40
51986;BME280;38002;53.296;6.600;2023-01-27T02:00:36;103016.81;;;3.67;93.86
51986;BME280;38002;53.296;6.600;2023-01-27T02:05:39;103022.19;;;3.67;93.46
51986;BME280;38002;53.296;6.600;2023-01-27T02:10:42;103021.41;;;3.65;92.82
51986;BME280;38002;53.296;6.600;2023-01-27T02:15:43;103026.69;;;3.67;92.51
51986;BME280;38002;53.296;6.600;2023-01-27T02:20:49;103026.69;;;3.67;93.40
51986;BME280;38002;53.296;6.600;2023-01-27T02:25:57;103019.50;;;3.67;91.95
51986;BME280;38002;53.296;6.600;2023-01-27T02:31:00;103019.59;;;3.66;92.27
51986;BME280;38002;53.296;6.600;2023-01-27T02:36:13;103033.91;;;3.67;91.89
51986;BME280;38002;53.296;6.600;2023-01-27T02:46:38;103026.63;;;3.69;91.82
51986;BME280;38002;53.296;6.600;2023-01-27T02:51:38;103029.38;;;3.67;92.30
51986;BME280;38002;53.296;6.600;2023-01-27T02:56:39;103023.16;;;3.67;91.82
51986;BME280;38002;53.296;6.600;2023-01-27T03:01:39;103027.72;;;3.64;91.87
51986;BME280;38002;53.296;6.600;2023-01-27T03:06:40;103030.44;;;3.63;91.45
51986;BME280;38002;53.296;6.600;2023-01-27T03:11:41;103033.22;;;3.61;91.14
51986;BME280;38002;53.296;6.600;2023-01-27T03:17:00;103040.47;;;3.59;91.89
51986;BME280;38002;53.296;6.600;2023-01-27T03:22:19;103047.75;;;3.57;92.04
51986;BME280;38002;53.296;6.600;2023-01-27T03:27:20;103063.06;;;3.55;91.32
51986;BME280;38002;53.296;6.600;2023-01-27T03:32:22;103055.19;;;3.51;91.42
51986;BME280;38002;53.296;6.600;2023-01-27T03:37:26;103057.25;;;3.44;90.61
51986;BME280;38002;53.296;6.600;2023-01-27T03:42:46;103070.94;;;3.38;91.37
51986;BME280;38002;53.296;6.600;2023-01-27T03:48:04;103063.94;;;3.34;90.19
51986;BME280;38002;53.296;6.600;2023-01-27T03:53:05;103072.94;;;3.33;90.76
51986;BME280;38002;53.296;6.600;2023-01-27T04:03:19;103068.56;;;3.31;91.25
51986;BME280;38002;53.296;6.600;2023-01-27T04:08:41;103081.13;;;3.30;90.87
51986;BME280;38002;53.296;6.600;2023-01-27T04:13:42;103083.88;;;3.29;90.23
51986;BME280;38002;53.296;6.600;2023-01-27T04:18:42;103087.44;;;3.29;90.54
51986;BME280;38002;53.296;6.600;2023-01-27T04:23:43;103082.94;;;3.30;91.25
51986;BME280;38002;53.296;6.600;2023-01-27T04:28:43;103079.38;;;3.29;90.57
51986;BME280;38002;53.296;6.600;2023-01-27T04:33:44;103084.81;;;3.28;90.20
51986;BME280;38002;53.296;6.600;2023-01-27T04:38:44;103086.56;;;3.29;90.74
51986;BME280;38002;53.296;6.600;2023-01-27T04:43:45;103100.06;;;3.27;90.93
51986;BME280;38002;53.296;6.600;2023-01-27T04:48:46;103091.19;;;3.25;90.33
51986;BME280;38002;53.296;6.600;2023-01-27T04:53:46;103103.66;;;3.28;90.95
51986;BME280;38002;53.296;6.600;2023-01-27T04:58:47;103108.16;;;3.27;90.87
51986;BME280;38002;53.296;6.600;2023-01-27T05:03:47;103110.00;;;3.25;90.88
51986;BME280;38002;53.296;6.600;2023-01-27T05:08:48;103108.16;;;3.27;90.80
51986;BME280;38002;53.296;6.600;2023-01-27T05:13:48;103118.91;;;3.27;90.32
51986;BME280;38002;53.296;6.600;2023-01-27T05:18:50;103119.78;;;3.28;90.73
51986;BME280;38002;53.296;6.600;2023-01-27T05:23:51;103118.16;;;3.24;89.27
51986;BME280;38002;53.296;6.600;2023-01-27T05:28:52;103123.41;;;3.27;90.52
51986;BME280;38002;53.296;6.600;2023-01-27T05:33:54;103123.44;;;3.25;90.37
51986;BME280;38002;53.296;6.600;2023-01-27T05:38:56;103112.78;;;3.24;90.18
51986;BME280;38002;53.296;6.600;2023-01-27T05:43:57;103115.38;;;3.25;89.88
51986;BME280;38002;53.296;6.600;2023-01-27T05:49:02;103105.44;;;3.27;89.45
51986;BME280;38002;53.296;6.600;2023-01-27T05:54:06;103092.94;;;3.26;90.15
51986;BME280;38002;53.296;6.600;2023-01-27T05:59:08;103091.06;;;3.28;90.67
51986;BME280;38002;53.296;6.600;2023-01-27T06:04:09;103082.25;;;3.25;89.62
51986;BME280;38002;53.296;6.600;2023-01-27T06:09:10;103098.50;;;3.22;90.53
51986;BME280;38002;53.296;6.600;2023-01-27T06:14:10;103099.59;;;3.16;90.30
51986;BME280;38002;53.296;6.600;2023-01-27T06:19:11;103120.47;;;3.09;89.24
51986;BME280;38002;53.296;6.600;2023-01-27T06:24:11;103115.47;;;3.00;89.27
51986;BME280;38002;53.296;6.600;2023-01-27T06:29:12;103126.41;;;2.94;89.57
51986;BME280;38002;53.296;6.600;2023-01-27T06:34:12;103137.41;;;2.88;90.21
51986;BME280;38002;53.296;6.600;2023-01-27T06:39:12;103138.50;;;2.83;90.23
51986;BME280;38002;53.296;6.600;2023-01-27T06:44:13;103146.63;;;2.81;90.61
51986;BME280;38002;53.296;6.600;2023-01-27T06:49:13;103144.00;;;2.80;91.02
51986;BME280;38002;53.296;6.600;2023-01-27T06:54:14;103154.69;;;2.81;90.94
51986;BME280;38002;53.296;6.600;2023-01-27T06:59:15;103159.97;;;2.84;90.83
51986;BME280;38002;53.296;6.600;2023-01-27T07:04:15;103159.97;;;2.84;91.33
51986;BME280;38002;53.296;6.600;2023-01-27T07:09:16;103168.03;;;2.84;91.07
51986;BME280;38002;53.296;6.600;2023-01-27T07:14:16;103169.75;;;2.85;90.65
51986;BME280;38002;53.296;6.600;2023-01-27T07:19:17;103169.75;;;2.85;91.15
51986;BME280;38002;53.296;6.600;2023-01-27T07:24:17;103174.38;;;2.82;91.02
51986;BME280;38002;53.296;6.600;2023-01-27T07:29:18;103173.47;;;2.81;91.06
51986;BME280;38002;53.296;6.600;2023-01-27T07:34:18;103193.13;;;2.83;91.55
51986;BME280;38002;53.296;6.600;2023-01-27T07:39:19;103201.16;;;2.85;91.23
51986;BME280;38002;53.296;6.600;2023-01-27T07:44:19;103207.31;;;2.87;91.78
51986;BME280;38002;53.296;6.600;2023-01-27T07:49:20;103205.56;;;2.86;92.31
51986;BME280;38002;53.296;6.600;2023-01-27T07:54:21;103218.91;;;2.89;91.70
51986;BME280;38002;53.296;6.600;2023-01-27T07:59:21;103208.97;;;2.91;92.70
51986;BME280;38002;53.296;6.600;2023-01-27T08:04:22;103215.19;;;2.93;92.99
51986;BME280;38002;53.296;6.600;2023-01-27T08:09:22;103209.69;;;2.96;92.43
51986;BME280;38002;53.296;6.600;2023-01-27T08:14:23;103211.38;;;2.98;92.98
51986;BME280;38002;53.296;6.600;2023-01-27T08:19:23;103217.56;;;3.00;92.87
51986;BME280;38002;53.296;6.600;2023-01-27T08:24:24;103213.81;;;3.06;93.14
51986;BME280;38002;53.296;6.600;2023-01-27T08:29:24;103227.13;;;3.09;92.76
51986;BME280;38002;53.296;6.600;2023-01-27T08:34:24;103237.63;;;3.15;92.55
51986;BME280;38002;53.296;6.600;2023-01-27T08:39:25;103245.53;;;3.19;93.07
51986;BME280;38002;53.296;6.600;2023-01-27T08:44:25;103243.53;;;3.25;93.27
51986;BME280;38002;53.296;6.600;2023-01-27T08:49:27;103248.84;;;3.28;93.10
51986;BME280;38002;53.296;6.600;2023-01-27T08:54:29;103251.34;;;3.32;93.05
51986;BME280;38002;53.296;6.600;2023-01-27T08:59:29;103259.22;;;3.37;93.77
51986;BME280;38002;53.296;6.600;2023-01-27T09:04:30;103265.38;;;3.40;93.55
51986;BME280;38002;53.296;6.600;2023-01-27T09:09:30;103267.06;;;3.43;93.48
51986;BME280;38002;53.296;6.600;2023-01-27T09:14:31;103269.59;;;3.47;93.13
51986;BME280;38002;53.296;6.600;2023-01-27T09:19:31;103272.97;;;3.52;93.31
51986;BME280;38002;53.296;6.600;2023-01-27T09:24:31;103273.69;;;3.57;92.89
51986;BME280;38002;53.296;6.600;2023-01-27T09:29:32;103277.06;;;3.62;93.70
51986;BME280;38002;53.296;6.600;2023-01-27T09:34:32;103276.97;;;3.65;93.61
51986;BME280;38002;53.296;6.600;2023-01-27T09:39:38;103282.22;;;3.69;92.88
51986;BME280;38002;53.296;6.600;2023-01-27T09:55:31;103270.19;;;3.79;93.13
51986;BME280;38002;53.296;6.600;2023-01-27T10:06:24;103272.25;;;3.94;92.53
51986;BME280;38002;53.296;6.600;2023-01-27T10:27:52;103279.78;;;4.07;90.66
51986;BME280;38002;53.296;6.600;2023-01-27T10:38:16;103270.78;;;4.08;89.59
51986;BME280;38002;53.296;6.600;2023-01-27T10:43:32;103276.31;;;4.05;90.22
51986;BME280;38002;53.296;6.600;2023-01-27T10:48:50;103277.31;;;4.01;89.84
51986;BME280;38002;53.296;6.600;2023-01-27T10:53:57;103269.38;;;3.98;90.28
51986;BME280;38002;53.296;6.600;2023-01-27T11:04:16;103271.47;;;3.92;90.21
51986;BME280;38002;53.296;6.600;2023-01-27T11:09:40;103256.47;;;3.85;89.42
51986;BME280;38002;53.296;6.600;2023-01-27T11:14:48;103266.47;;;3.81;90.19
51986;BME280;38002;53.296;6.600;2023-01-27T11:20:04;103260.22;;;3.81;90.67
51986;BME280;38002;53.296;6.600;2023-01-27T11:25:21;103259.28;;;3.82;90.93
51986;BME280;38002;53.296;6.600;2023-01-27T11:30:35;103261.09;;;3.81;90.27
51986;BME280;38002;53.296;6.600;2023-01-27T11:35:37;103254.91;;;3.79;90.10
51986;BME280;38002;53.296;6.600;2023-01-27T11:40:38;103258.59;;;3.77;90.15
51986;BME280;38002;53.296;6.600;2023-01-27T11:45:40;103247.06;;;3.73;90.56
51986;BME280;38002;53.296;6.600;2023-01-27T11:50:42;103246.13;;;3.74;90.12
51986;BME280;38002;53.296;6.600;2023-01-27T11:55:48;103242.69;;;3.71;89.78
51986;BME280;38002;53.296;6.600;2023-01-27T12:00:56;103240.94;;;3.70;91.06
51986;BME280;38002;53.296;6.600;2023-01-27T12:06:03;103245.31;;;3.72;90.81
51986;BME280;38002;53.296;6.600;2023-01-27T12:11:23;103240.75;;;3.74;90.23
51986;BME280;38002;53.296;6.600;2023-01-27T12:16:30;103244.44;;;3.72;90.20
51986;BME280;38002;53.296;6.600;2023-01-27T12:21:41;103240.00;;;3.71;90.67
51986;BME280;38002;53.296;6.600;2023-01-27T12:26:44;103238.28;;;3.68;90.13
51986;BME280;38002;53.296;6.600;2023-01-27T12:31:47;103239.16;;;3.69;89.88
51986;BME280;38002;53.296;6.600;2023-01-27T12:36:49;103233.97;;;3.64;89.56
51986;BME280;38002;53.296;6.600;2023-01-27T12:41:51;103228.53;;;3.65;90.53
51986;BME280;38002;53.296;6.600;2023-01-27T12:47:14;103231.94;;;3.71;89.84
51986;BME280;38002;53.296;6.600;2023-01-27T12:52:20;103227.34;;;3.73;90.02
51986;BME280;38002;53.296;6.600;2023-01-27T12:57:20;103230.78;;;3.76;90.60
51986;BME280;38002;53.296;6.600;2023-01-27T13:02:24;103223.47;;;3.80;90.57
51986;BME280;38002;53.296;6.600;2023-01-27T13:07:30;103226.06;;;3.83;89.84
51986;BME280;38002;53.296;6.600;2023-01-27T13:12:56;103223.28;;;3.84;89.22
51986;BME280;38002;53.296;6.600;2023-01-27T13:17:59;103234.06;;;3.84;89.33
51986;BME280;38002;53.296;6.600;2023-01-27T13:28:14;103223.25;;;3.86;89.82
51986;BME280;38002;53.296;6.600;2023-01-27T13:38:59;103227.81;;;3.84;88.86
51986;BME280;38002;53.296;6.600;2023-01-27T13:49:56;103218.97;;;3.80;88.63
51986;BME280;38002;53.296;6.600;2023-01-27T13:54:48;103227.19;;;3.77;88.69
51986;BME280;38002;53.296;6.600;2023-01-27T14:10:34;103229.31;;;3.91;89.82
51986;BME280;38002;53.296;6.600;2023-01-27T14:15:45;103227.50;;;3.91;89.51
51986;BME280;38002;53.296;6.600;2023-01-27T14:37:11;103217.16;;;3.81;89.69
51986;BME280;38002;53.296;6.600;2023-01-27T14:42:27;103212.84;;;3.77;90.07
51986;BME280;38002;53.296;6.600;2023-01-27T15:08:53;103237.22;;;3.72;90.65
51986;BME280;38002;53.296;6.600;2023-01-27T15:30:33;103238.66;;;3.59;90.13
51986;BME280;38002;53.296;6.600;2023-01-27T15:35:36;103249.41;;;3.59;90.63
51986;BME280;38002;53.296;6.600;2023-01-27T15:45:57;103254.91;;;3.56;90.02
51986;BME280;38002;53.296;6.600;2023-01-27T15:51:18;103256.72;;;3.55;90.62
51986;BME280;38002;53.296;6.600;2023-01-27T15:56:39;103264.00;;;3.53;90.14
51986;BME280;38002;53.296;6.600;2023-01-27T16:01:39;103262.22;;;3.52;90.03
51986;BME280;38002;53.296;6.600;2023-01-27T16:06:47;103270.34;;;3.51;90.36
51986;BME280;38002;53.296;6.600;2023-01-27T16:17:23;103267.81;;;3.46;90.45
51986;BME280;38002;53.296;6.600;2023-01-27T16:22:24;103278.72;;;3.43;90.23
51986;BME280;38002;53.296;6.600;2023-01-27T16:27:38;103278.88;;;3.39;90.91
51986;BME280;38002;53.296;6.600;2023-01-27T16:32:53;103285.25;;;3.36;90.47
51986;BME280;38002;53.296;6.600;2023-01-27T16:38:25;103283.50;;;3.35;90.52
51986;BME280;38002;53.296;6.600;2023-01-27T16:43:42;103283.53;;;3.34;91.13
51986;BME280;38002;53.296;6.600;2023-01-27T16:48:45;103290.84;;;3.30;90.35
51986;BME280;38002;53.296;6.600;2023-01-27T16:53:49;103282.94;;;3.26;90.33
51986;BME280;38002;53.296;6.600;2023-01-27T16:58:57;103292.81;;;3.25;89.64
51986;BME280;38002;53.296;6.600;2023-01-27T17:04:01;103288.44;;;3.23;90.32
51986;BME280;38002;53.296;6.600;2023-01-27T17:09:18;103292.22;;;3.17;89.55
51986;BME280;38002;53.296;6.600;2023-01-27T17:14:28;103288.81;;;3.12;90.22
51986;BME280;38002;53.296;6.600;2023-01-27T17:19:31;103293.31;;;3.11;90.61
51986;BME280;38002;53.296;6.600;2023-01-27T17:24:35;103297.88;;;3.09;90.51
51986;BME280;38002;53.296;6.600;2023-01-27T17:29:40;103305.88;;;3.11;89.72
51986;BME280;38002;53.296;6.600;2023-01-27T17:34:41;103305.94;;;3.09;89.95
51986;BME280;38002;53.296;6.600;2023-01-27T17:39:43;103320.31;;;3.08;90.41
51986;BME280;38002;53.296;6.600;2023-01-27T17:44:45;103323.03;;;3.07;90.82
51986;BME280;38002;53.296;6.600;2023-01-27T17:49:49;103323.91;;;3.07;90.44
51986;BME280;38002;53.296;6.600;2023-01-27T17:54:50;103326.59;;;3.07;90.17
51986;BME280;38002;53.296;6.600;2023-01-27T18:05:12;103333.13;;;3.00;90.87
51986;BME280;38002;53.296;6.600;2023-01-27T18:20:34;103344.03;;;2.96;89.74
51986;BME280;38002;53.296;6.600;2023-01-27T18:25:38;103349.56;;;2.91;90.20
51986;BME280;38002;53.296;6.600;2023-01-27T18:30:45;103347.88;;;2.89;90.29
51986;BME280;38002;53.296;6.600;2023-01-27T18:35:58;103349.72;;;2.87;90.63
51986;BME280;38002;53.296;6.600;2023-01-27T18:41:10;103357.97;;;2.81;90.71
51986;BME280;38002;53.296;6.600;2023-01-27T18:46:11;103353.66;;;2.77;89.42
51986;BME280;38002;53.296;6.600;2023-01-27T18:51:13;103352.94;;;2.71;89.75
51986;BME280;38002;53.296;6.600;2023-01-27T18:56:14;103354.81;;;2.68;89.42
51986;BME280;38002;53.296;6.600;2023-01-27T19:01:19;103351.38;;;2.64;89.16
51986;BME280;38002;53.296;6.600;2023-01-27T19:06:20;103355.94;;;2.62;89.23
51986;BME280;38002;53.296;6.600;2023-01-27T19:11:21;103346.28;;;2.55;88.72
51986;BME280;38002;53.296;6.600;2023-01-27T19:16:21;103361.38;;;2.59;89.87
51986;BME280;38002;53.296;6.600;2023-01-27T19:21:22;103361.38;;;2.59;89.55
51986;BME280;38002;53.296;6.600;2023-01-27T19:26:22;103360.56;;;2.57;89.40
51986;BME280;38002;53.296;6.600;2023-01-27T19:31:23;103367.63;;;2.60;89.25
51986;BME280;38002;53.296;6.600;2023-01-27T19:36:29;103364.13;;;2.58;89.28
51986;BME280;38002;53.296;6.600;2023-01-27T19:41:33;103372.22;;;2.56;89.55
51986;BME280;38002;53.296;6.600;2023-01-27T19:46:34;103366.97;;;2.53;89.71
51986;BME280;38002;53.296;6.600;2023-01-27T19:51:34;103361.59;;;2.53;89.22
51986;BME280;38002;53.296;6.600;2023-01-27T19:56:35;103353.44;;;2.56;89.35
51986;BME280;38002;53.296;6.600;2023-01-27T20:01:36;103359.66;;;2.58;89.83
51986;BME280;38002;53.296;6.600;2023-01-27T20:06:37;103356.13;;;2.56;89.61
51986;BME280;38002;53.296;6.600;2023-01-27T20:11:42;103353.38;;;2.58;89.04
51986;BME280;38002;53.296;6.600;2023-01-27T20:16:42;103349.78;;;2.59;89.13
51986;BME280;38002;53.296;6.600;2023-01-27T20:21:44;103353.31;;;2.59;89.17
51986;BME280;38002;53.296;6.600;2023-01-27T20:26:45;103357.03;;;2.55;88.15
51986;BME280;38002;53.296;6.600;2023-01-27T20:31:45;103350.75;;;2.56;89.12
51986;BME280;38002;53.296;6.600;2023-01-27T20:36:46;103349.94;;;2.54;88.87
51986;BME280;38002;53.296;6.600;2023-01-27T20:41:49;103350.94;;;2.50;88.99
51986;BME280;38002;53.296;6.600;2023-01-27T20:46:50;103352.81;;;2.48;88.42
51986;BME280;38002;53.296;6.600;2023-01-27T20:51:50;103349.22;;;2.48;89.23
51986;BME280;38002;53.296;6.600;2023-01-27T20:56:51;103343.72;;;2.52;89.46
51986;BME280;38002;53.296;6.600;2023-01-27T21:01:51;103352.63;;;2.54;89.32
51986;BME280;38002;53.296;6.600;2023-01-27T21:06:52;103348.19;;;2.52;88.09
51986;BME280;38002;53.296;6.600;2023-01-27T21:11:52;103358.16;;;2.48;88.73
51986;BME280;38002;53.296;6.600;2023-01-27T21:16:53;103356.56;;;2.43;88.39
51986;BME280;38002;53.296;6.600;2023-01-27T21:21:53;103353.78;;;2.46;88.85
51986;BME280;38002;53.296;6.600;2023-01-27T21:26:54;103336.78;;;2.45;89.05
51986;BME280;38002;53.296;6.600;2023-01-27T21:31:56;103340.19;;;2.50;89.70
51986;BME280;38002;53.296;6.600;2023-01-27T21:36:56;103345.56;;;2.50;88.96
51986;BME280;38002;53.296;6.600;2023-01-27T21:41:57;103335.69;;;2.51;88.90
51986;BME280;38002;53.296;6.600;2023-01-27T21:46:57;103336.56;;;2.51;89.55
51986;BME280;38002;53.296;6.600;2023-01-27T21:51:57;103332.97;;;2.52;89.23
51986;BME280;38002;53.296;6.600;2023-01-27T21:56:58;103343.72;;;2.52;89.98
51986;BME280;38002;53.296;6.600;2023-01-27T22:01:58;103334.00;;;2.48;88.71
51986;BME280;38002;53.296;6.600;2023-01-27T22:06:59;103343.81;;;2.49;89.48
51986;BME280;38002;53.296;6.600;2023-01-27T22:11:59;103335.91;;;2.45;88.94
51986;BME280;38002;53.296;6.600;2023-01-27T22:17:00;103342.97;;;2.47;89.66
51986;BME280;38002;53.296;6.600;2023-01-27T22:22:00;103327.72;;;2.49;88.97
51986;BME280;38002;53.296;6.600;2023-01-27T22:27:00;103333.16;;;2.46;89.67
51986;BME280;38002;53.296;6.600;2023-01-27T22:32:01;103333.28;;;2.43;89.24
51986;BME280;38002;53.296;6.600;2023-01-27T22:37:02;103329.66;;;2.44;89.94
51986;BME280;38002;53.296;6.600;2023-01-27T22:42:03;103325.19;;;2.45;89.76
51986;BME280;38002;53.296;6.600;2023-01-27T22:47:03;103332.31;;;2.46;88.77
51986;BME280;38002;53.296;6.600;2023-01-27T22:52:04;103312.81;;;2.39;88.90
51986;BME280;38002;53.296;6.600;2023-01-27T22:57:05;103328.78;;;2.44;89.90
51986;BME280;38002;53.296;6.600;2023-01-27T23:02:06;103326.09;;;2.44;89.96
51986;BME280;38002;53.296;6.600;2023-01-27T23:07:06;103335.00;;;2.46;88.94
51986;BME280;38002;53.296;6.600;2023-01-27T23:12:07;103326.94;;;2.46;89.12
51986;BME280;38002;53.296;6.600;2023-01-27T23:17:07;103327.09;;;2.41;88.61
51986;BME280;38002;53.296;6.600;2023-01-27T23:22:08;103318.28;;;2.36;88.57
51986;BME280;38002;53.296;6.600;2023-01-27T23:27:08;103318.34;;;2.35;89.52
51986;BME280;38002;53.296;6.600;2023-01-27T23:32:09;103313.81;;;2.37;89.33
51986;BME280;38002;53.296;6.600;2023-01-27T23:37:09;103321.91;;;2.35;89.74
51986;BME280;38002;53.296;6.600;2023-01-27T23:42:10;103323.69;;;2.35;89.77
51986;BME280;38002;53.296;6.600;2023-01-27T23:47:12;103321.06;;;2.33;88.58
51986;BME280;38002;53.296;6.600;2023-01-27T23:52:13;103322.94;;;2.31;88.86
51986;BME280;38002;53.296;6.600;2023-01-27T23:57:14;103328.25;;;2.33;89.36
